Accomac, Pennsylvania
Current Conditions -  °F | °C
As of 3:56 PM on Saturday 20 Dec 2014 (Local Time) from KMDT Reporting Station
Broken Clouds Broken Clouds  
Wind Chill: 29°   Ceiling: 25000
Heat Index: 33°   Visibility: 10mi
Dew Point: 21°   Wind: 5mph
Humidity: 61%   Direction: 300°WNW
Pressure: 30.25"   Gusts: NA
Location:  40.0152°N, 76.5974°W
Report Text: KMDT 202056Z 30004KT 10SM SCT032 SCT180 BKN250 01/M06 A3025 RMK AO2 SLP248 T00061061 55002
Loading
Personal Weather Stations






























Interactive Weather Map New forecast layout! Learn more

10-Day Weather Forecast

Advertisements
Track Severe Weather on mobile